sensor_id;sensor_type;location;lat;lon;timestamp;temperature;humidity
21801;DHT22;11062;51.164;16.924;2023-05-20T00:02:19;35.80;37.10
21801;DHT22;11062;51.164;16.924;2023-05-20T00:04:48;35.70;37.00
21801;DHT22;11062;51.164;16.924;2023-05-20T00:07:17;35.80;37.10
21801;DHT22;11062;51.164;16.924;2023-05-20T00:09:44;35.70;37.10
21801;DHT22;11062;51.164;16.924;2023-05-20T00:12:10;35.70;37.10
21801;DHT22;11062;51.164;16.924;2023-05-20T00:14:36;35.70;37.10
21801;DHT22;11062;51.164;16.924;2023-05-20T00:17:02;35.70;37.10
21801;DHT22;11062;51.164;16.924;2023-05-20T00:19:28;35.70;37.10
21801;DHT22;11062;51.164;16.924;2023-05-20T00:22:00;35.70;37.10
21801;DHT22;11062;51.164;16.924;2023-05-20T00:24:29;35.70;37.10
21801;DHT22;11062;51.164;16.924;2023-05-20T00:27:06;35.70;37.10
21801;DHT22;11062;51.164;16.924;2023-05-20T00:29:35;35.70;37.10
21801;DHT22;11062;51.164;16.924;2023-05-20T00:32:02;35.60;37.00
21801;DHT22;11062;51.164;16.924;2023-05-20T00:34:28;35.60;37.10
21801;DHT22;11062;51.164;16.924;2023-05-20T00:36:56;35.60;37.00
21801;DHT22;11062;51.164;16.924;2023-05-20T00:39:22;35.70;37.10
21801;DHT22;11062;51.164;16.924;2023-05-20T00:41:48;35.60;37.10
21801;DHT22;11062;51.164;16.924;2023-05-20T00:44:17;35.70;37.20
21801;DHT22;11062;51.164;16.924;2023-05-20T00:46:43;35.60;37.10
21801;DHT22;11062;51.164;16.924;2023-05-20T00:49:12;35.60;37.10
21801;DHT22;11062;51.164;16.924;2023-05-20T00:51:38;35.70;37.20
21801;DHT22;11062;51.164;16.924;2023-05-20T00:54:05;35.70;37.30
21801;DHT22;11062;51.164;16.924;2023-05-20T00:56:31;35.70;37.10
21801;DHT22;11062;51.164;16.924;2023-05-20T00:59:00;35.70;37.10
21801;DHT22;11062;51.164;16.924;2023-05-20T01:01:26;35.70;37.00
21801;DHT22;11062;51.164;16.924;2023-05-20T01:03:56;35.70;37.00
21801;DHT22;11062;51.164;16.924;2023-05-20T01:06:22;35.80;37.00
21801;DHT22;11062;51.164;16.924;2023-05-20T01:08:47;35.80;37.00
21801;DHT22;11062;51.164;16.924;2023-05-20T01:11:25;35.80;37.00
21801;DHT22;11062;51.164;16.924;2023-05-20T01:14:00;35.90;37.00
21801;DHT22;11062;51.164;16.924;2023-05-20T01:16:28;35.90;37.00
21801;DHT22;11062;51.164;16.924;2023-05-20T01:18:55;35.90;37.00
21801;DHT22;11062;51.164;16.924;2023-05-20T01:21:31;35.80;36.90
21801;DHT22;11062;51.164;16.924;2023-05-20T01:23:58;35.90;37.00
21801;DHT22;11062;51.164;16.924;2023-05-20T01:26:26;35.90;36.80
21801;DHT22;11062;51.164;16.924;2023-05-20T01:28:52;35.90;36.80
21801;DHT22;11062;51.164;16.924;2023-05-20T01:31:23;35.90;36.80
21801;DHT22;11062;51.164;16.924;2023-05-20T01:33:55;35.90;36.70
21801;DHT22;11062;51.164;16.924;2023-05-20T01:36:24;35.80;36.80
21801;DHT22;11062;51.164;16.924;2023-05-20T01:38:53;35.80;36.70
21801;DHT22;11062;51.164;16.924;2023-05-20T01:41:20;35.70;36.50
21801;DHT22;11062;51.164;16.924;2023-05-20T01:43:48;35.80;36.50
21801;DHT22;11062;51.164;16.924;2023-05-20T01:46:17;35.70;36.60
21801;DHT22;11062;51.164;16.924;2023-05-20T01:48:43;35.80;36.50
21801;DHT22;11062;51.164;16.924;2023-05-20T01:51:12;35.70;36.40
21801;DHT22;11062;51.164;16.924;2023-05-20T01:53:38;35.80;36.50
21801;DHT22;11062;51.164;16.924;2023-05-20T01:56:04;35.70;36.40
21801;DHT22;11062;51.164;16.924;2023-05-20T01:58:30;35.80;36.50
21801;DHT22;11062;51.164;16.924;2023-05-20T02:01:02;35.70;36.40
21801;DHT22;11062;51.164;16.924;2023-05-20T02:03:32;35.70;36.40
21801;DHT22;11062;51.164;16.924;2023-05-20T02:05:58;35.70;36.50
21801;DHT22;11062;51.164;16.924;2023-05-20T02:08:24;35.60;36.40
21801;DHT22;11062;51.164;16.924;2023-05-20T02:10:53;35.60;36.50
21801;DHT22;11062;51.164;16.924;2023-05-20T02:13:22;35.50;36.50
21801;DHT22;11062;51.164;16.924;2023-05-20T02:15:50;35.40;36.50
21801;DHT22;11062;51.164;16.924;2023-05-20T02:18:21;35.40;36.80
21801;DHT22;11062;51.164;16.924;2023-05-20T02:20:47;35.30;36.60
21801;DHT22;11062;51.164;16.924;2023-05-20T02:23:13;35.30;36.70
21801;DHT22;11062;51.164;16.924;2023-05-20T02:25:39;35.40;36.80
21801;DHT22;11062;51.164;16.924;2023-05-20T02:28:05;35.30;36.70
21801;DHT22;11062;51.164;16.924;2023-05-20T02:30:36;35.40;36.70
21801;DHT22;11062;51.164;16.924;2023-05-20T02:33:02;35.40;36.70
21801;DHT22;11062;51.164;16.924;2023-05-20T02:35:29;35.40;36.70
21801;DHT22;11062;51.164;16.924;2023-05-20T02:37:55;35.40;36.50
21801;DHT22;11062;51.164;16.924;2023-05-20T02:40:21;35.40;36.70
21801;DHT22;11062;51.164;16.924;2023-05-20T02:42:47;35.30;36.70
21801;DHT22;11062;51.164;16.924;2023-05-20T02:45:16;35.40;36.60
21801;DHT22;11062;51.164;16.924;2023-05-20T02:47:42;35.40;36.70
21801;DHT22;11062;51.164;16.924;2023-05-20T02:50:08;35.40;36.50
21801;DHT22;11062;51.164;16.924;2023-05-20T02:52:34;35.40;36.60
21801;DHT22;11062;51.164;16.924;2023-05-20T02:55:00;35.40;36.60
21801;DHT22;11062;51.164;16.924;2023-05-20T02:57:26;35.40;36.60
21801;DHT22;11062;51.164;16.924;2023-05-20T02:59:59;35.40;36.50
21801;DHT22;11062;51.164;16.924;2023-05-20T03:02:25;35.50;36.50
21801;DHT22;11062;51.164;16.924;2023-05-20T03:04:53;35.40;36.50
21801;DHT22;11062;51.164;16.924;2023-05-20T03:07:19;35.40;36.40
21801;DHT22;11062;51.164;16.924;2023-05-20T03:09:46;35.40;36.60
21801;DHT22;11062;51.164;16.924;2023-05-20T03:12:14;35.40;36.60
21801;DHT22;11062;51.164;16.924;2023-05-20T03:14:46;35.40;36.50
21801;DHT22;11062;51.164;16.924;2023-05-20T03:17:15;35.50;36.50
21801;DHT22;11062;51.164;16.924;2023-05-20T03:19:41;35.50;36.50
21801;DHT22;11062;51.164;16.924;2023-05-20T03:22:06;35.50;36.60
21801;DHT22;11062;51.164;16.924;2023-05-20T03:24:35;35.50;36.50
21801;DHT22;11062;51.164;16.924;2023-05-20T03:27:01;35.40;36.60
21801;DHT22;11062;51.164;16.924;2023-05-20T03:29:27;35.50;36.60
21801;DHT22;11062;51.164;16.924;2023-05-20T03:31:53;35.50;36.50
21801;DHT22;11062;51.164;16.924;2023-05-20T03:34:25;35.50;36.50
21801;DHT22;11062;51.164;16.924;2023-05-20T03:36:54;35.60;36.50
21801;DHT22;11062;51.164;16.924;2023-05-20T03:39:22;35.50;36.50
21801;DHT22;11062;51.164;16.924;2023-05-20T03:41:50;35.60;36.50
21801;DHT22;11062;51.164;16.924;2023-05-20T03:44:16;35.60;36.50
21801;DHT22;11062;51.164;16.924;2023-05-20T03:46:44;35.60;36.50
21801;DHT22;11062;51.164;16.924;2023-05-20T03:49:10;35.70;36.60
21801;DHT22;11062;51.164;16.924;2023-05-20T03:51:39;35.70;36.50
21801;DHT22;11062;51.164;16.924;2023-05-20T03:54:16;35.70;36.50
21801;DHT22;11062;51.164;16.924;2023-05-20T03:56:42;35.80;36.50
21801;DHT22;11062;51.164;16.924;2023-05-20T03:59:11;35.80;36.50
21801;DHT22;11062;51.164;16.924;2023-05-20T04:01:37;35.80;36.40
21801;DHT22;11062;51.164;16.924;2023-05-20T04:04:03;35.80;36.50
21801;DHT22;11062;51.164;16.924;2023-05-20T04:06:30;35.70;36.40
21801;DHT22;11062;51.164;16.924;2023-05-20T04:08:59;35.70;36.60
21801;DHT22;11062;51.164;16.924;2023-05-20T04:11:31;35.70;36.60
21801;DHT22;11062;51.164;16.924;2023-05-20T04:13:57;35.70;36.60
21801;DHT22;11062;51.164;16.924;2023-05-20T04:16:26;35.70;36.60
21801;DHT22;11062;51.164;16.924;2023-05-20T04:18:52;35.70;36.60
21801;DHT22;11062;51.164;16.924;2023-05-20T04:21:20;35.70;36.50
21801;DHT22;11062;51.164;16.924;2023-05-20T04:23:46;35.70;36.50
21801;DHT22;11062;51.164;16.924;2023-05-20T04:26:15;35.70;36.70
21801;DHT22;11062;51.164;16.924;2023-05-20T04:28:41;35.70;36.70
21801;DHT22;11062;51.164;16.924;2023-05-20T04:31:09;35.70;36.70
21801;DHT22;11062;51.164;16.924;2023-05-20T04:36:20;35.60;36.50
21801;DHT22;11062;51.164;16.924;2023-05-20T04:38:46;35.60;36.70
21801;DHT22;11062;51.164;16.924;2023-05-20T04:41:15;35.60;37.50
21801;DHT22;11062;51.164;16.924;2023-05-20T04:43:43;35.60;36.70
21801;DHT22;11062;51.164;16.924;2023-05-20T04:46:12;35.60;36.60
21801;DHT22;11062;51.164;16.924;2023-05-20T04:48:38;35.50;36.70
21801;DHT22;11062;51.164;16.924;2023-05-20T04:51:09;35.50;36.80
21801;DHT22;11062;51.164;16.924;2023-05-20T04:53:37;35.60;36.80
21801;DHT22;11062;51.164;16.924;2023-05-20T04:56:05;35.60;36.80
21801;DHT22;11062;51.164;16.924;2023-05-20T04:58:32;35.60;36.80
21801;DHT22;11062;51.164;16.924;2023-05-20T05:00:58;35.50;36.70
21801;DHT22;11062;51.164;16.924;2023-05-20T05:03:25;35.50;36.70
21801;DHT22;11062;51.164;16.924;2023-05-20T05:05:55;35.40;36.70
21801;DHT22;11062;51.164;16.924;2023-05-20T05:08:22;35.50;36.80
21801;DHT22;11062;51.164;16.924;2023-05-20T05:10:48;35.50;36.70
21801;DHT22;11062;51.164;16.924;2023-05-20T05:13:20;35.60;36.70
21801;DHT22;11062;51.164;16.924;2023-05-20T05:15:57;35.70;36.80
21801;DHT22;11062;51.164;16.924;2023-05-20T05:18:23;35.60;36.80
21801;DHT22;11062;51.164;16.924;2023-05-20T05:20:49;35.60;36.90
21801;DHT22;11062;51.164;16.924;2023-05-20T05:23:22;35.60;36.80
21801;DHT22;11062;51.164;16.924;2023-05-20T05:25:52;35.60;36.90
21801;DHT22;11062;51.164;16.924;2023-05-20T05:28:18;35.70;36.80
21801;DHT22;11062;51.164;16.924;2023-05-20T05:30:47;35.70;36.80
21801;DHT22;11062;51.164;16.924;2023-05-20T05:33:16;35.70;36.80
21801;DHT22;11062;51.164;16.924;2023-05-20T05:35:45;35.70;36.80
21801;DHT22;11062;51.164;16.924;2023-05-20T05:38:11;35.70;36.80
21801;DHT22;11062;51.164;16.924;2023-05-20T05:40:40;35.70;36.80
21801;DHT22;11062;51.164;16.924;2023-05-20T05:43:06;35.70;36.90
21801;DHT22;11062;51.164;16.924;2023-05-20T05:45:35;35.80;37.00
21801;DHT22;11062;51.164;16.924;2023-05-20T05:48:06;35.80;36.70
21801;DHT22;11062;51.164;16.924;2023-05-20T05:50:35;35.30;36.60
21801;DHT22;11062;51.164;16.924;2023-05-20T05:53:06;35.50;37.00
21801;DHT22;11062;51.164;16.924;2023-05-20T05:55:32;35.60;37.00
21801;DHT22;11062;51.164;16.924;2023-05-20T05:58:01;35.60;36.80
21801;DHT22;11062;51.164;16.924;2023-05-20T06:00:27;35.60;36.90
21801;DHT22;11062;51.164;16.924;2023-05-20T06:02:56;35.70;36.80
21801;DHT22;11062;51.164;16.924;2023-05-20T06:05:22;35.80;36.70
21801;DHT22;11062;51.164;16.924;2023-05-20T06:07:50;35.80;36.70
21801;DHT22;11062;51.164;16.924;2023-05-20T06:10:16;35.90;36.80
21801;DHT22;11062;51.164;16.924;2023-05-20T06:12:42;35.90;36.70
21801;DHT22;11062;51.164;16.924;2023-05-20T06:15:08;36.00;36.70
21801;DHT22;11062;51.164;16.924;2023-05-20T06:17:34;35.70;36.40
21801;DHT22;11062;51.164;16.924;2023-05-20T06:20:00;35.80;37.20
21801;DHT22;11062;51.164;16.924;2023-05-20T06:22:26;35.80;36.50
21801;DHT22;11062;51.164;16.924;2023-05-20T06:24:56;35.70;36.70
21801;DHT22;11062;51.164;16.924;2023-05-20T06:27:25;35.70;36.60
21801;DHT22;11062;51.164;16.924;2023-05-20T06:29:52;35.60;36.80
21801;DHT22;11062;51.164;16.924;2023-05-20T06:32:18;35.50;36.70
21801;DHT22;11062;51.164;16.924;2023-05-20T06:34:44;35.60;36.80
21801;DHT22;11062;51.164;16.924;2023-05-20T06:37:16;35.60;36.90
21801;DHT22;11062;51.164;16.924;2023-05-20T06:39:42;35.80;37.00
21801;DHT22;11062;51.164;16.924;2023-05-20T06:42:12;35.80;36.80
21801;DHT22;11062;51.164;16.924;2023-05-20T06:44:38;35.70;36.80
21801;DHT22;11062;51.164;16.924;2023-05-20T06:47:07;35.80;36.70
21801;DHT22;11062;51.164;16.924;2023-05-20T06:49:35;35.70;36.80
21801;DHT22;11062;51.164;16.924;2023-05-20T06:52:04;35.60;36.70
21801;DHT22;11062;51.164;16.924;2023-05-20T06:54:30;35.60;37.60
21801;DHT22;11062;51.164;16.924;2023-05-20T06:57:06;35.60;36.90
21801;DHT22;11062;51.164;16.924;2023-05-20T06:59:41;35.50;37.10
21801;DHT22;11062;51.164;16.924;2023-05-20T07:02:10;35.50;37.00
21801;DHT22;11062;51.164;16.924;2023-05-20T07:04:36;35.60;37.00
21801;DHT22;11062;51.164;16.924;2023-05-20T07:07:02;35.70;36.90
21801;DHT22;11062;51.164;16.924;2023-05-20T07:09:30;35.60;37.00
21801;DHT22;11062;51.164;16.924;2023-05-20T07:12:02;35.50;36.80
21801;DHT22;11062;51.164;16.924;2023-05-20T07:14:31;35.60;36.80
21801;DHT22;11062;51.164;16.924;2023-05-20T07:17:01;35.70;36.90
21801;DHT22;11062;51.164;16.924;2023-05-20T07:19:27;35.70;36.80
21801;DHT22;11062;51.164;16.924;2023-05-20T07:21:57;35.60;36.50
21801;DHT22;11062;51.164;16.924;2023-05-20T07:24:29;35.60;36.80
21801;DHT22;11062;51.164;16.924;2023-05-20T07:27:01;35.70;36.80
21801;DHT22;11062;51.164;16.924;2023-05-20T07:29:32;35.70;36.80
21801;DHT22;11062;51.164;16.924;2023-05-20T07:31:58;35.80;36.70
21801;DHT22;11062;51.164;16.924;2023-05-20T07:34:27;35.90;36.80
21801;DHT22;11062;51.164;16.924;2023-05-20T07:36:53;36.00;36.60
21801;DHT22;11062;51.164;16.924;2023-05-20T07:39:28;35.90;36.30
21801;DHT22;11062;51.164;16.924;2023-05-20T07:41:54;36.00;36.40
21801;DHT22;11062;51.164;16.924;2023-05-20T07:44:21;36.10;36.40
21801;DHT22;11062;51.164;16.924;2023-05-20T07:46:48;36.10;36.20
21801;DHT22;11062;51.164;16.924;2023-05-20T08:14:35;36.70;35.80
21801;DHT22;11062;51.164;16.924;2023-05-20T08:17:10;36.70;35.40
21801;DHT22;11062;51.164;16.924;2023-05-20T08:19:43;36.50;35.50
21801;DHT22;11062;51.164;16.924;2023-05-20T08:22:18;36.50;35.50
21801;DHT22;11062;51.164;16.924;2023-05-20T08:24:54;36.60;35.60
21801;DHT22;11062;51.164;16.924;2023-05-20T08:27:25;36.50;35.60
21801;DHT22;11062;51.164;16.924;2023-05-20T08:29:53;36.60;35.70
21801;DHT22;11062;51.164;16.924;2023-05-20T09:30:39;38.00;34.20
21801;DHT22;11062;51.164;16.924;2023-05-20T09:33:10;38.00;34.40
21801;DHT22;11062;51.164;16.924;2023-05-20T09:35:38;38.10;34.40
21801;DHT22;11062;51.164;16.924;2023-05-20T09:38:09;38.00;34.50
21801;DHT22;11062;51.164;16.924;2023-05-20T09:40:48;38.20;35.00
21801;DHT22;11062;51.164;16.924;2023-05-20T09:43:21;38.20;34.40
21801;DHT22;11062;51.164;16.924;2023-05-20T09:45:50;38.20;35.20
21801;DHT22;11062;51.164;16.924;2023-05-20T09:48:27;38.20;34.60
21801;DHT22;11062;51.164;16.924;2023-05-20T09:56:45;38.10;34.40
21801;DHT22;11062;51.164;16.924;2023-05-20T09:59:58;38.30;34.40
21801;DHT22;11062;51.164;16.924;2023-05-20T10:02:30;38.40;34.60
21801;DHT22;11062;51.164;16.924;2023-05-20T10:06:01;38.60;34.40
21801;DHT22;11062;51.164;16.924;2023-05-20T10:13:02;39.00;34.10
21801;DHT22;11062;51.164;16.924;2023-05-20T10:19:39;39.00;33.90
21801;DHT22;11062;51.164;16.924;2023-05-20T10:41:31;39.20;34.20
21801;DHT22;11062;51.164;16.924;2023-05-20T10:48:10;39.40;34.30
21801;DHT22;11062;51.164;16.924;2023-05-20T10:51:52;39.20;34.10
21801;DHT22;11062;51.164;16.924;2023-05-20T10:55:21;39.50;34.50
21801;DHT22;11062;51.164;16.924;2023-05-20T11:02:01;39.60;34.00
21801;DHT22;11062;51.164;16.924;2023-05-20T11:05:15;39.80;34.10
21801;DHT22;11062;51.164;16.924;2023-05-20T11:08:42;39.80;34.00
21801;DHT22;11062;51.164;16.924;2023-05-20T11:19:28;39.90;34.00
21801;DHT22;11062;51.164;16.924;2023-05-20T11:26:36;39.80;33.70
21801;DHT22;11062;51.164;16.924;2023-05-20T11:30:15;39.60;34.00
21801;DHT22;11062;51.164;16.924;2023-05-20T11:33:53;39.50;34.00
21801;DHT22;11062;51.164;16.924;2023-05-20T11:37:35;39.60;34.30
21801;DHT22;11062;51.164;16.924;2023-05-20T11:41:24;39.60;34.20
21801;DHT22;11062;51.164;16.924;2023-05-20T11:47:05;39.70;34.30
21801;DHT22;11062;51.164;16.924;2023-05-20T11:49:38;39.60;34.20
21801;DHT22;11062;51.164;16.924;2023-05-20T11:52:07;39.70;34.50
21801;DHT22;11062;51.164;16.924;2023-05-20T11:54:38;39.70;34.30
21801;DHT22;11062;51.164;16.924;2023-05-20T11:57:26;39.70;34.20
21801;DHT22;11062;51.164;16.924;2023-05-20T12:00:49;39.60;34.50
21801;DHT22;11062;51.164;16.924;2023-05-20T12:52:27;40.20;33.90
21801;DHT22;11062;51.164;16.924;2023-05-20T12:56:09;40.10;33.80
21801;DHT22;11062;51.164;16.924;2023-05-20T13:00:06;40.20;34.30
21801;DHT22;11062;51.164;16.924;2023-05-20T13:02:54;40.10;34.30
21801;DHT22;11062;51.164;16.924;2023-05-20T13:05:32;40.10;34.30
21801;DHT22;11062;51.164;16.924;2023-05-20T13:08:01;40.20;34.10
21801;DHT22;11062;51.164;16.924;2023-05-20T13:10:31;40.20;34.10
21801;DHT22;11062;51.164;16.924;2023-05-20T13:13:00;40.20;34.10
21801;DHT22;11062;51.164;16.924;2023-05-20T13:15:26;40.30;34.40
21801;DHT22;11062;51.164;16.924;2023-05-20T13:18:02;40.20;34.30
21801;DHT22;11062;51.164;16.924;2023-05-20T13:20:28;40.10;34.10
21801;DHT22;11062;51.164;16.924;2023-05-20T13:22:57;40.20;34.10
21801;DHT22;11062;51.164;16.924;2023-05-20T13:25:28;40.30;34.40
21801;DHT22;11062;51.164;16.924;2023-05-20T13:28:04;40.30;34.00
21801;DHT22;11062;51.164;16.924;2023-05-20T13:30:37;40.40;34.30
21801;DHT22;11062;51.164;16.924;2023-05-20T13:33:06;40.10;34.00
21801;DHT22;11062;51.164;16.924;2023-05-20T13:35:36;40.10;34.20
21801;DHT22;11062;51.164;16.924;2023-05-20T13:38:07;40.10;34.50
21801;DHT22;11062;51.164;16.924;2023-05-20T13:40:36;40.20;34.60
21801;DHT22;11062;51.164;16.924;2023-05-20T13:43:02;40.20;34.30
21801;DHT22;11062;51.164;16.924;2023-05-20T13:45:28;40.40;34.20
21801;DHT22;11062;51.164;16.924;2023-05-20T13:47:57;40.20;34.00
21801;DHT22;11062;51.164;16.924;2023-05-20T13:50:27;40.50;33.90
21801;DHT22;11062;51.164;16.924;2023-05-20T13:52:59;40.50;34.50
21801;DHT22;11062;51.164;16.924;2023-05-20T13:55:28;40.60;33.90
21801;DHT22;11062;51.164;16.924;2023-05-20T13:57:59;40.70;33.80
21801;DHT22;11062;51.164;16.924;2023-05-20T14:00:34;40.90;34.00
21801;DHT22;11062;51.164;16.924;2023-05-20T14:03:09;40.80;33.30
21801;DHT22;11062;51.164;16.924;2023-05-20T14:05:46;41.00;33.70
21801;DHT22;11062;51.164;16.924;2023-05-20T14:08:31;41.40;33.60
21801;DHT22;11062;51.164;16.924;2023-05-20T14:11:02;41.90;32.50
21801;DHT22;11062;51.164;16.924;2023-05-20T14:42:35;44.10;30.70
21801;DHT22;11062;51.164;16.924;2023-05-20T14:46:04;44.50;30.50
21801;DHT22;11062;51.164;16.924;2023-05-20T14:49:34;44.60;30.20
21801;DHT22;11062;51.164;16.924;2023-05-20T14:52:53;44.90;30.30
21801;DHT22;11062;51.164;16.924;2023-05-20T15:47:45;47.20;29.10
21801;DHT22;11062;51.164;16.924;2023-05-20T15:50:14;47.10;28.90
21801;DHT22;11062;51.164;16.924;2023-05-20T15:52:45;47.10;29.10
21801;DHT22;11062;51.164;16.924;2023-05-20T15:55:17;47.00;29.10
21801;DHT22;11062;51.164;16.924;2023-05-20T15:57:43;47.00;29.40
21801;DHT22;11062;51.164;16.924;2023-05-20T16:00:12;47.00;29.50
21801;DHT22;11062;51.164;16.924;2023-05-20T16:02:45;46.90;29.20
21801;DHT22;11062;51.164;16.924;2023-05-20T16:05:23;46.90;29.40
21801;DHT22;11062;51.164;16.924;2023-05-20T16:07:50;46.80;29.50
21801;DHT22;11062;51.164;16.924;2023-05-20T16:10:18;46.70;29.50
21801;DHT22;11062;51.164;16.924;2023-05-20T16:12:47;46.70;29.40
21801;DHT22;11062;51.164;16.924;2023-05-20T16:15:19;46.60;29.60
21801;DHT22;11062;51.164;16.924;2023-05-20T16:17:48;46.60;29.80
21801;DHT22;11062;51.164;16.924;2023-05-20T16:20:20;46.60;29.80
21801;DHT22;11062;51.164;16.924;2023-05-20T16:22:48;46.60;29.80
21801;DHT22;11062;51.164;16.924;2023-05-20T16:25:15;46.50;29.90
21801;DHT22;11062;51.164;16.924;2023-05-20T16:27:52;46.50;29.70
21801;DHT22;11062;51.164;16.924;2023-05-20T16:30:23;46.50;29.80
21801;DHT22;11062;51.164;16.924;2023-05-20T16:32:55;46.40;29.90
21801;DHT22;11062;51.164;16.924;2023-05-20T16:35:23;46.30;29.80
21801;DHT22;11062;51.164;16.924;2023-05-20T16:37:52;46.10;29.90
21801;DHT22;11062;51.164;16.924;2023-05-20T16:40:18;46.00;30.00
21801;DHT22;11062;51.164;16.924;2023-05-20T16:42:44;45.80;30.10
21801;DHT22;11062;51.164;16.924;2023-05-20T16:45:28;45.50;30.10
21801;DHT22;11062;51.164;16.924;2023-05-20T16:48:04;45.40;30.50
21801;DHT22;11062;51.164;16.924;2023-05-20T16:50:54;45.20;30.70
21801;DHT22;11062;51.164;16.924;2023-05-20T16:53:25;45.00;30.90
21801;DHT22;11062;51.164;16.924;2023-05-20T16:56:15;44.80;31.20
21801;DHT22;11062;51.164;16.924;2023-05-20T16:58:41;44.60;31.40
21801;DHT22;11062;51.164;16.924;2023-05-20T17:01:13;44.30;31.70
21801;DHT22;11062;51.164;16.924;2023-05-20T17:03:39;44.10;31.90
21801;DHT22;11062;51.164;16.924;2023-05-20T17:06:08;44.00;32.30
21801;DHT22;11062;51.164;16.924;2023-05-20T17:08:37;43.80;32.50
21801;DHT22;11062;51.164;16.924;2023-05-20T17:11:06;43.60;32.80
21801;DHT22;11062;51.164;16.924;2023-05-20T17:13:35;43.40;33.40
21801;DHT22;11062;51.164;16.924;2023-05-20T17:16:03;43.20;33.40
21801;DHT22;11062;51.164;16.924;2023-05-20T17:18:39;43.00;33.60
21801;DHT22;11062;51.164;16.924;2023-05-20T17:21:08;42.90;33.90
21801;DHT22;11062;51.164;16.924;2023-05-20T17:23:36;42.80;34.10
21801;DHT22;11062;51.164;16.924;2023-05-20T17:26:08;42.60;34.40
21801;DHT22;11062;51.164;16.924;2023-05-20T17:28:34;42.50;34.80
21801;DHT22;11062;51.164;16.924;2023-05-20T17:31:02;42.30;35.10
21801;DHT22;11062;51.164;16.924;2023-05-20T17:33:28;42.30;35.50
21801;DHT22;11062;51.164;16.924;2023-05-20T17:35:54;42.20;35.60
21801;DHT22;11062;51.164;16.924;2023-05-20T17:38:23;42.00;35.80
21801;DHT22;11062;51.164;16.924;2023-05-20T17:40:55;41.90;35.80
21801;DHT22;11062;51.164;16.924;2023-05-20T17:43:23;41.90;36.00
21801;DHT22;11062;51.164;16.924;2023-05-20T17:45:56;41.80;36.10
21801;DHT22;11062;51.164;16.924;2023-05-20T17:48:22;41.60;36.10
21801;DHT22;11062;51.164;16.924;2023-05-20T17:50:51;41.30;36.90
21801;DHT22;11062;51.164;16.924;2023-05-20T17:53:17;41.20;36.80
21801;DHT22;11062;51.164;16.924;2023-05-20T17:55:43;41.00;37.00
21801;DHT22;11062;51.164;16.924;2023-05-20T17:58:11;40.90;36.80
21801;DHT22;11062;51.164;16.924;2023-05-20T18:00:37;40.80;36.80
21801;DHT22;11062;51.164;16.924;2023-05-20T18:03:09;40.80;36.90
21801;DHT22;11062;51.164;16.924;2023-05-20T18:05:38;40.70;37.20
21801;DHT22;11062;51.164;16.924;2023-05-20T18:08:04;40.60;37.10
21801;DHT22;11062;51.164;16.924;2023-05-20T18:10:33;40.50;37.40
21801;DHT22;11062;51.164;16.924;2023-05-20T18:12:59;40.40;37.30
21801;DHT22;11062;51.164;16.924;2023-05-20T18:15:26;40.40;37.40
21801;DHT22;11062;51.164;16.924;2023-05-20T18:17:52;40.20;37.40
21801;DHT22;11062;51.164;16.924;2023-05-20T18:20:18;40.20;37.40
21801;DHT22;11062;51.164;16.924;2023-05-20T18:22:44;40.20;37.50
21801;DHT22;11062;51.164;16.924;2023-05-20T18:25:11;40.00;37.50
21801;DHT22;11062;51.164;16.924;2023-05-20T18:27:38;40.00;38.40
21801;DHT22;11062;51.164;16.924;2023-05-20T18:30:04;39.80;37.70
21801;DHT22;11062;51.164;16.924;2023-05-20T18:32:31;39.80;37.80
21801;DHT22;11062;51.164;16.924;2023-05-20T18:35:00;39.70;37.90
21801;DHT22;11062;51.164;16.924;2023-05-20T18:37:26;39.60;37.80
21801;DHT22;11062;51.164;16.924;2023-05-20T18:39:53;39.50;37.70
21801;DHT22;11062;51.164;16.924;2023-05-20T18:42:19;39.40;37.60
21801;DHT22;11062;51.164;16.924;2023-05-20T18:44:45;39.30;37.60
21801;DHT22;11062;51.164;16.924;2023-05-20T18:47:11;39.20;37.70
21801;DHT22;11062;51.164;16.924;2023-05-20T18:49:37;39.20;37.80
21801;DHT22;11062;51.164;16.924;2023-05-20T18:52:06;38.90;37.80
21801;DHT22;11062;51.164;16.924;2023-05-20T18:54:32;39.00;37.90
21801;DHT22;11062;51.164;16.924;2023-05-20T18:57:02;38.90;38.00
21801;DHT22;11062;51.164;16.924;2023-05-20T18:59:33;38.70;38.30
21801;DHT22;11062;51.164;16.924;2023-05-20T19:02:02;38.60;38.50
21801;DHT22;11062;51.164;16.924;2023-05-20T19:04:28;38.60;38.50
21801;DHT22;11062;51.164;16.924;2023-05-20T19:06:57;37.80;38.30
21801;DHT22;11062;51.164;16.924;2023-05-20T19:09:23;38.50;39.00
21801;DHT22;11062;51.164;16.924;2023-05-20T19:11:49;37.60;39.10
21801;DHT22;11062;51.164;16.924;2023-05-20T19:14:20;37.40;39.40
21801;DHT22;11062;51.164;16.924;2023-05-20T19:16:46;37.20;39.90
21801;DHT22;11062;51.164;16.924;2023-05-20T19:19:12;37.20;39.90
21801;DHT22;11062;51.164;16.924;2023-05-20T19:21:39;37.10;39.60
21801;DHT22;11062;51.164;16.924;2023-05-20T19:24:09;37.00;39.50
21801;DHT22;11062;51.164;16.924;2023-05-20T19:26:37;37.10;39.60
21801;DHT22;11062;51.164;16.924;2023-05-20T19:29:07;37.00;39.40
21801;DHT22;11062;51.164;16.924;2023-05-20T19:31:36;36.90;39.30
21801;DHT22;11062;51.164;16.924;2023-05-20T19:34:05;36.90;39.70
21801;DHT22;11062;51.164;16.924;2023-05-20T19:36:31;36.80;39.70
21801;DHT22;11062;51.164;16.924;2023-05-20T19:38:57;36.60;39.60
21801;DHT22;11062;51.164;16.924;2023-05-20T19:41:24;36.70;39.70
21801;DHT22;11062;51.164;16.924;2023-05-20T19:43:54;36.70;39.70
21801;DHT22;11062;51.164;16.924;2023-05-20T19:46:22;36.60;39.60
21801;DHT22;11062;51.164;16.924;2023-05-20T19:48:48;36.50;39.80
21801;DHT22;11062;51.164;16.924;2023-05-20T19:51:23;36.60;39.80
21801;DHT22;11062;51.164;16.924;2023-05-20T19:53:49;36.50;39.80
21801;DHT22;11062;51.164;16.924;2023-05-20T19:56:15;36.50;40.10
21801;DHT22;11062;51.164;16.924;2023-05-20T19:58:44;36.50;40.00
21801;DHT22;11062;51.164;16.924;2023-05-20T20:01:14;36.40;40.00
21801;DHT22;11062;51.164;16.924;2023-05-20T20:07:07;36.50;39.60
21801;DHT22;11062;51.164;16.924;2023-05-20T20:09:36;36.40;39.70
21801;DHT22;11062;51.164;16.924;2023-05-20T20:12:06;36.30;39.60
21801;DHT22;11062;51.164;16.924;2023-05-20T20:14:32;36.30;39.60
21801;DHT22;11062;51.164;16.924;2023-05-20T20:17:07;36.20;39.80
21801;DHT22;11062;51.164;16.924;2023-05-20T20:19:33;36.30;39.70
21801;DHT22;11062;51.164;16.924;2023-05-20T20:22:03;36.20;39.90